Terminal Aerodrome Forecast
Issued by NWS Sterling, VA

Current Version | Previous Version | Graphics & Text | Print | Product List | Glossary On
Versions: 1 2 3 4 5 6 7 8 9 10 11 12 13 14 15 16 17 18 19 20
000
FTUS41 KLWX 240500
TAFMRB
TAF
KMRB 240537Z 2406/2506 02003KT 1SM RAPL BR OVC014
     FM240900 36004KT 1SM -SN OVC008
     FM241600 32006KT P6SM OVC008
     FM241700 30007KT P6SM OVC015
     FM241900 29009KT P6SM BKN025
     FM242000 29010KT P6SM BKN120=

USA.gov is the U.S. government's official web portal to all federal, state and local government web resources and services.